Time;durP1;ratioP1;P1;durP2;ratioP2;P2;SDS_P1;SDS_P2;PMS_P1;PMS_P2;Temp;Humidity;BMP_temperature;BMP_pressure;BME280_temperature;BME280_humidity;BME280_pressure;Samples;Min_cycle;Max_cycle;Signal;HPM_P1;HPM_P2
2023/10/24 00:03:43;;;;;;;3.42;2.30;;;;;;;;;;10329557;28;20140;-75
2023/10/24 00:08:46;;;;;;;3.53;2.58;;;;;;;;;;10328444;28;20058;-75
2023/10/24 00:13:50;;;;;;;2.88;2.40;;;;;;;;;;10321059;28;20042;-75
2023/10/24 00:18:54;;;;;;;3.72;2.38;;;;;;;;;;10329075;28;20058;-75
2023/10/24 00:23:57;;;;;;;2.50;2.00;;;;;;;;;;10323057;28;20249;-75
2023/10/24 00:29:01;;;;;;;3.65;2.42;;;;;;;;;;10325243;28;20053;-75
2023/10/24 00:34:05;;;;;;;2.90;2.03;;;;;;;;;;10332432;28;20173;-75
2023/10/24 00:39:09;;;;;;;2.55;1.77;;;;;;;;;;10322942;28;20052;-75
2023/10/24 00:44:13;;;;;;;2.72;1.92;;;;;;;;;;10324122;28;20464;-75
2023/10/24 00:49:18;;;;;;;2.28;1.83;;;;;;;;;;10329386;28;20066;-75
2023/10/24 00:54:22;;;;;;;2.55;2.05;;;;;;;;;;10322387;28;20499;-75
2023/10/24 00:59:27;;;;;;;4.60;2.15;;;;;;;;;;10302203;28;20066;-77
2023/10/24 01:04:32;;;;;;;1.85;1.60;;;;;;;;;;10317586;28;20512;-75
2023/10/24 01:09:36;;;;;;;2.63;1.88;;;;;;;;;;10324303;28;20050;-75
2023/10/24 01:14:41;;;;;;;3.97;1.77;;;;;;;;;;10324475;28;20046;-75
2023/10/24 01:19:46;;;;;;;3.00;1.92;;;;;;;;;;10301794;28;20046;-75
2023/10/24 01:24:52;;;;;;;3.38;2.13;;;;;;;;;;10329358;28;20101;-75
2023/10/24 01:29:55;;;;;;;1.90;1.70;;;;;;;;;;10311305;28;20137;-75
2023/10/24 01:34:58;;;;;;;3.30;1.80;;;;;;;;;;10304640;28;20039;-75
2023/10/24 01:40:03;;;;;;;1.83;1.60;;;;;;;;;;10325643;28;20047;-75
2023/10/24 01:45:08;;;;;;;3.75;1.60;;;;;;;;;;10321763;23;20133;-75
2023/10/24 01:50:12;;;;;;;2.50;1.27;;;;;;;;;;10287509;28;20412;-75
2023/10/24 01:55:17;;;;;;;2.65;1.38;;;;;;;;;;10289218;28;20094;-75
2023/10/24 02:00:21;;;;;;;3.42;1.10;;;;;;;;;;10272840;28;20042;-75
2023/10/24 02:05:24;;;;;;;4.78;1.60;;;;;;;;;;10286924;28;20101;-75
2023/10/24 02:10:29;;;;;;;1.92;1.35;;;;;;;;;;10270475;28;20050;-75
2023/10/24 02:15:33;;;;;;;3.08;1.13;;;;;;;;;;10286932;28;20047;-75
2023/10/24 02:20:38;;;;;;;1.40;1.00;;;;;;;;;;10281977;28;20046;-75
2023/10/24 02:25:42;;;;;;;1.17;0.80;;;;;;;;;;10270154;28;20408;-75
2023/10/24 02:30:46;;;;;;;2.05;0.77;;;;;;;;;;10269054;28;20102;-76
2023/10/24 02:35:49;;;;;;;0.98;0.60;;;;;;;;;;10286379;28;20125;-75
2023/10/24 02:40:55;;;;;;;1.38;0.57;;;;;;;;;;10287178;28;20425;-75
2023/10/24 02:46:03;;;;;;;0.43;0.40;;;;;;;;;;10286223;28;20047;-75
2023/10/24 02:51:07;;;;;;;2.30;0.57;;;;;;;;;;10282717;28;20043;-75
2023/10/24 02:56:12;;;;;;;1.02;0.50;;;;;;;;;;10284915;28;20492;-76
2023/10/24 03:01:15;;;;;;;2.55;0.45;;;;;;;;;;10269424;28;20867;-76
2023/10/24 03:06:19;;;;;;;0.45;0.30;;;;;;;;;;10268616;28;20054;-76
2023/10/24 03:11:25;;;;;;;1.17;0.32;;;;;;;;;;10269803;28;20097;-75
2023/10/24 03:16:29;;;;;;;1.65;0.32;;;;;;;;;;10286415;28;20554;-75
2023/10/24 03:21:32;;;;;;;0.40;0.30;;;;;;;;;;10285466;28;20551;-76
2023/10/24 03:26:37;;;;;;;0.75;0.30;;;;;;;;;;10285278;28;20046;-75
2023/10/24 03:31:40;;;;;;;0.32;0.32;;;;;;;;;;10284977;28;20473;-75
2023/10/24 03:36:44;;;;;;;0.93;0.45;;;;;;;;;;10293352;28;20058;-75
2023/10/24 03:41:49;;;;;;;0.20;0.20;;;;;;;;;;10283064;28;20050;-75
2023/10/24 03:46:52;;;;;;;0.20;0.20;;;;;;;;;;10282829;28;20046;-75
2023/10/24 03:51:56;;;;;;;0.63;0.30;;;;;;;;;;10284227;28;20059;-75
2023/10/24 03:57:01;;;;;;;0.20;0.20;;;;;;;;;;10285415;28;20544;-75
2023/10/24 04:02:04;;;;;;;1.38;0.30;;;;;;;;;;10286508;28;20480;-75
2023/10/24 04:07:08;;;;;;;1.17;0.30;;;;;;;;;;10285162;28;20051;-75
2023/10/24 04:12:12;;;;;;;0.40;0.30;;;;;;;;;;10283091;28;20492;-75
2023/10/24 04:17:16;;;;;;;0.20;0.20;;;;;;;;;;10281302;28;20109;-75
2023/10/24 04:22:20;;;;;;;0.30;0.20;;;;;;;;;;10282936;28;20397;-75
2023/10/24 04:27:25;;;;;;;0.45;0.40;;;;;;;;;;10283586;28;20058;-75
2023/10/24 04:32:29;;;;;;;0.40;0.40;;;;;;;;;;10288075;28;20109;-75
2023/10/24 04:37:32;;;;;;;0.77;0.40;;;;;;;;;;10288933;28;20393;-75
2023/10/24 04:42:37;;;;;;;0.60;0.60;;;;;;;;;;10282201;28;20050;-75
2023/10/24 04:47:40;;;;;;;0.25;0.25;;;;;;;;;;10283170;28;20050;-75
2023/10/24 04:52:43;;;;;;;0.52;0.45;;;;;;;;;;10284205;28;20122;-76
2023/10/24 04:57:48;;;;;;;0.75;0.20;;;;;;;;;;10281771;28;20053;-76
2023/10/24 05:02:53;;;;;;;1.13;0.57;;;;;;;;;;10281227;28;20098;-75
2023/10/24 05:07:57;;;;;;;0.30;0.30;;;;;;;;;;10287843;28;20054;-76
2023/10/24 05:13:02;;;;;;;0.55;0.55;;;;;;;;;;10282354;28;20058;-75
2023/10/24 05:18:09;;;;;;;0.40;0.40;;;;;;;;;;10283741;28;20055;-75
2023/10/24 05:23:12;;;;;;;0.40;0.40;;;;;;;;;;10281602;28;20047;-75
2023/10/24 05:28:17;;;;;;;0.50;0.40;;;;;;;;;;10285524;28;20059;-75
2023/10/24 05:33:20;;;;;;;0.30;0.30;;;;;;;;;;10281119;28;20058;-75
2023/10/24 05:38:24;;;;;;;1.17;0.57;;;;;;;;;;10289312;28;20117;-76
2023/10/24 05:43:28;;;;;;;0.93;0.50;;;;;;;;;;10283576;28;20043;-75
2023/10/24 05:48:32;;;;;;;0.50;0.50;;;;;;;;;;10281905;28;20051;-76
2023/10/24 05:53:35;;;;;;;0.47;0.47;;;;;;;;;;10281666;28;20054;-75
2023/10/24 05:58:40;;;;;;;0.85;0.50;;;;;;;;;;10265059;28;20051;-75
2023/10/24 06:03:44;;;;;;;0.68;0.40;;;;;;;;;;10280667;28;20047;-75
2023/10/24 06:08:47;;;;;;;0.55;0.47;;;;;;;;;;10281222;28;20054;-76
2023/10/24 06:13:52;;;;;;;2.20;0.55;;;;;;;;;;10285482;28;20075;-76
2023/10/24 06:18:56;;;;;;;0.65;0.55;;;;;;;;;;10287134;28;20050;-76
2023/10/24 06:23:59;;;;;;;1.63;0.70;;;;;;;;;;10288483;28;20047;-75
2023/10/24 06:29:04;;;;;;;1.75;0.50;;;;;;;;;;10289949;28;20046;-75
2023/10/24 06:34:08;;;;;;;2.03;0.50;;;;;;;;;;10290076;28;20058;-75
2023/10/24 06:39:11;;;;;;;0.60;0.40;;;;;;;;;;10288035;28;20571;-75
2023/10/24 06:44:16;;;;;;;3.40;0.68;;;;;;;;;;10282175;28;20070;-75
2023/10/24 06:49:19;;;;;;;0.93;0.75;;;;;;;;;;10283868;28;20051;-76
2023/10/24 06:54:23;;;;;;;1.45;0.70;;;;;;;;;;10288038;28;20043;-75
2023/10/24 06:59:28;;;;;;;1.25;0.88;;;;;;;;;;10282217;28;20134;-75
2023/10/24 07:04:31;;;;;;;2.83;1.90;;;;;;;;;;10271417;28;20440;-75
2023/10/24 07:09:35;;;;;;;2.15;1.30;;;;;;;;;;10286861;28;20062;-76
2023/10/24 07:14:40;;;;;;;1.55;1.17;;;;;;;;;;10286688;28;20062;-75
2023/10/24 07:19:45;;;;;;;2.15;1.15;;;;;;;;;;10283837;28;20389;-75
2023/10/24 07:24:48;;;;;;;2.17;0.90;;;;;;;;;;10286194;28;20043;-76
2023/10/24 07:29:53;;;;;;;1.25;0.80;;;;;;;;;;10282853;28;20054;-75
2023/10/24 07:34:56;;;;;;;1.52;0.77;;;;;;;;;;10289286;28;20088;-75
2023/10/24 07:40:00;;;;;;;1.00;0.70;;;;;;;;;;10288884;28;20054;-75
2023/10/24 07:45:06;;;;;;;1.70;1.05;;;;;;;;;;10321179;23;20545;-76
2023/10/24 07:50:10;;;;;;;1.77;0.93;;;;;;;;;;10329681;28;20054;-77
2023/10/24 07:55:14;;;;;;;2.60;0.57;;;;;;;;;;10328506;28;20570;-78
2023/10/24 08:00:19;;;;;;;1.20;0.82;;;;;;;;;;10331496;28;20109;-77
2023/10/24 08:05:23;;;;;;;2.95;0.95;;;;;;;;;;10323029;28;20042;-77
2023/10/24 08:10:26;;;;;;;2.15;0.88;;;;;;;;;;10332607;28;20113;-77
2023/10/24 08:15:33;;;;;;;1.05;0.80;;;;;;;;;;10334658;28;20149;-77
2023/10/24 08:20:36;;;;;;;2.78;0.95;;;;;;;;;;10327860;28;20062;-77
2023/10/24 08:25:40;;;;;;;1.42;0.95;;;;;;;;;;10334667;28;20050;-77
2023/10/24 08:30:44;;;;;;;1.73;1.17;;;;;;;;;;10326507;28;20121;-78
2023/10/24 08:35:48;;;;;;;1.27;0.70;;;;;;;;;;10325171;28;20051;-78
2023/10/24 08:40:51;;;;;;;0.93;0.70;;;;;;;;;;10313186;28;20046;-78
2023/10/24 08:45:57;;;;;;;0.40;0.40;;;;;;;;;;10327333;28;20404;-78
2023/10/24 08:51:01;;;;;;;1.55;0.60;;;;;;;;;;10310284;28;20134;-79
2023/10/24 08:56:06;;;;;;;0.47;0.45;;;;;;;;;;10328340;28;20377;-79
2023/10/24 09:01:11;;;;;;;1.27;0.40;;;;;;;;;;10327380;28;20054;-79
2023/10/24 09:06:14;;;;;;;0.60;0.50;;;;;;;;;;10306458;28;20054;-78
2023/10/24 09:11:18;;;;;;;0.50;0.43;;;;;;;;;;10332530;28;20042;-77
2023/10/24 09:16:23;;;;;;;0.70;0.50;;;;;;;;;;10337456;28;20047;-77
2023/10/24 09:21:27;;;;;;;1.23;0.70;;;;;;;;;;10326154;28;20057;-77
2023/10/24 09:26:30;;;;;;;1.02;0.60;;;;;;;;;;10327759;28;20054;-79
2023/10/24 09:31:36;;;;;;;0.63;0.60;;;;;;;;;;10335006;28;20447;-79
2023/10/24 09:36:40;;;;;;;1.00;0.63;;;;;;;;;;10315427;28;20673;-79
2023/10/24 09:41:44;;;;;;;1.13;0.70;;;;;;;;;;10329419;28;20576;-79
2023/10/24 09:46:51;;;;;;;1.05;0.60;;;;;;;;;;10332628;28;20722;-79
2023/10/24 09:51:55;;;;;;;1.42;0.60;;;;;;;;;;10338183;28;20045;-80
2023/10/24 09:56:59;;;;;;;0.77;0.60;;;;;;;;;;10343451;28;20539;-79
2023/10/24 10:02:06;;;;;;;1.70;0.60;;;;;;;;;;10338594;28;20133;-79
2023/10/24 10:07:12;;;;;;;0.60;0.50;;;;;;;;;;10328169;28;20074;-78
2023/10/24 10:12:17;;;;;;;0.70;0.60;;;;;;;;;;10317515;28;20046;-79
2023/10/24 10:17:33;;;;;;;0.80;0.52;;;;;;;;;;10338248;28;20054;-79
2023/10/24 10:22:50;;;;;;;0.55;0.50;;;;;;;;;;10335970;28;20043;-79
2023/10/24 10:28:01;;;;;;;0.57;0.45;;;;;;;;;;10332894;28;20039;-79
2023/10/24 10:33:11;;;;;;;1.23;0.70;;;;;;;;;;10314448;28;20097;-78
2023/10/24 10:38:41;;;;;;;0.45;0.40;;;;;;;;;;10321242;28;20072;-77
2023/10/24 10:43:45;;;;;;;1.52;0.77;;;;;;;;;;10315310;28;20038;-77
2023/10/24 10:48:51;;;;;;;1.05;0.80;;;;;;;;;;10336590;28;20069;-77
2023/10/24 10:54:04;;;;;;;1.30;0.77;;;;;;;;;;10335182;28;20054;-77
2023/10/24 10:59:21;;;;;;;1.10;0.80;;;;;;;;;;10327999;28;20060;-77
2023/10/24 11:04:27;;;;;;;1.17;0.50;;;;;;;;;;10331359;28;20049;-76
2023/10/24 11:09:35;;;;;;;1.25;0.70;;;;;;;;;;10328180;28;20058;-77
2023/10/24 11:14:39;;;;;;;0.73;0.60;;;;;;;;;;10327602;28;20058;-76
2023/10/24 11:19:43;;;;;;;0.57;0.57;;;;;;;;;;10327871;28;20042;-76
2023/10/24 11:24:48;;;;;;;1.63;0.80;;;;;;;;;;10330679;28;20516;-76
2023/10/24 11:29:51;;;;;;;0.60;0.55;;;;;;;;;;10329121;28;20046;-76
2023/10/24 11:34:56;;;;;;;0.80;0.70;;;;;;;;;;10327778;28;20050;-76
2023/10/24 11:39:59;;;;;;;0.50;0.50;;;;;;;;;;10335462;28;20053;-76
2023/10/24 11:45:04;;;;;;;0.90;0.50;;;;;;;;;;10327272;28;20042;-79
2023/10/24 11:50:09;;;;;;;1.35;0.65;;;;;;;;;;10355297;28;20042;-77
2023/10/24 11:55:13;;;;;;;1.03;0.70;;;;;;;;;;10357948;28;20507;-78
2023/10/24 12:00:18;;;;;;;0.50;0.50;;;;;;;;;;10317783;28;20294;-78
2023/10/24 12:05:22;;;;;;;1.77;0.68;;;;;;;;;;10311602;28;20117;-78
2023/10/24 12:10:26;;;;;;;0.80;0.70;;;;;;;;;;10329102;28;20069;-78
2023/10/24 12:15:31;;;;;;;0.98;0.40;;;;;;;;;;10329922;28;20070;-76
2023/10/24 12:20:35;;;;;;;1.58;0.50;;;;;;;;;;10330730;28;20050;-76
2023/10/24 12:25:39;;;;;;;1.45;0.68;;;;;;;;;;10308614;28;20062;-76
2023/10/24 12:30:42;;;;;;;0.90;0.40;;;;;;;;;;10307081;28;20101;-76
2023/10/24 12:35:48;;;;;;;0.68;0.50;;;;;;;;;;10325629;28;20048;-76
2023/10/24 12:40:52;;;;;;;0.40;0.40;;;;;;;;;;10325592;28;20042;-76
2023/10/24 12:45:56;;;;;;;0.88;0.43;;;;;;;;;;10324446;28;20049;-76
2023/10/24 12:51:01;;;;;;;0.90;0.43;;;;;;;;;;10326857;28;20074;-78
2023/10/24 12:56:06;;;;;;;0.52;0.52;;;;;;;;;;10302265;28;20415;-78
2023/10/24 13:01:10;;;;;;;1.80;0.80;;;;;;;;;;10304311;28;20062;-77
2023/10/24 13:06:15;;;;;;;0.68;0.57;;;;;;;;;;10301631;28;21893;-78
2023/10/24 13:11:18;;;;;;;2.92;0.70;;;;;;;;;;10332308;28;20046;-78
2023/10/24 13:16:22;;;;;;;0.47;0.47;;;;;;;;;;10328119;28;20476;-76
2023/10/24 13:21:27;;;;;;;1.35;0.60;;;;;;;;;;10331923;28;20159;-77
2023/10/24 13:26:32;;;;;;;0.73;0.68;;;;;;;;;;10332600;28;20552;-77
2023/10/24 13:31:35;;;;;;;1.05;0.50;;;;;;;;;;10327957;28;20054;-77
2023/10/24 13:36:45;;;;;;;2.10;1.05;;;;;;;;;;10336798;28;20042;-78
2023/10/24 13:41:51;;;;;;;0.65;0.63;;;;;;;;;;10314691;28;20047;-77
2023/10/24 13:46:56;;;;;;;0.98;0.60;;;;;;;;;;10373472;23;20144;-77
2023/10/24 13:52:04;;;;;;;0.80;0.50;;;;;;;;;;10333374;28;20046;-76
2023/10/24 13:57:09;;;;;;;0.70;0.47;;;;;;;;;;10314042;28;20045;-76
2023/10/24 14:02:13;;;;;;;0.50;0.50;;;;;;;;;;10335012;28;20120;-76
2023/10/24 14:07:18;;;;;;;1.20;0.60;;;;;;;;;;10324911;28;20053;-76
2023/10/24 14:12:21;;;;;;;0.60;0.47;;;;;;;;;;10327948;28;20038;-76
2023/10/24 14:17:25;;;;;;;0.52;0.50;;;;;;;;;;10327280;28;20042;-75
2023/10/24 14:22:48;;;;;;;0.57;0.40;;;;;;;;;;10323222;28;20057;-77
2023/10/24 14:27:57;;;;;;;0.43;0.40;;;;;;;;;;10332112;28;20038;-77
2023/10/24 14:33:00;;;;;;;0.68;0.57;;;;;;;;;;10329190;28;20400;-77
2023/10/24 14:38:09;;;;;;;0.75;0.50;;;;;;;;;;10318509;28;20050;-77
2023/10/24 14:43:14;;;;;;;0.45;0.40;;;;;;;;;;10314425;28;20504;-77
2023/10/24 14:48:17;;;;;;;0.40;0.40;;;;;;;;;;10330604;28;20466;-78
2023/10/24 14:53:22;;;;;;;0.52;0.40;;;;;;;;;;10337074;28;20050;-77
2023/10/24 14:58:26;;;;;;;0.40;0.30;;;;;;;;;;10327865;28;20050;-77
2023/10/24 15:03:39;;;;;;;0.20;0.20;;;;;;;;;;10325343;28;20050;-77
2023/10/24 15:08:44;;;;;;;1.70;1.00;;;;;;;;;;10331456;28;20476;-77
2023/10/24 15:13:48;;;;;;;0.70;0.70;;;;;;;;;;10326155;28;20059;-77
2023/10/24 15:18:52;;;;;;;1.23;0.60;;;;;;;;;;10312164;28;20054;-77
2023/10/24 15:23:57;;;;;;;0.50;0.30;;;;;;;;;;10330291;28;20042;-77
2023/10/24 15:29:01;;;;;;;0.35;0.30;;;;;;;;;;10329946;28;20497;-77
2023/10/24 15:34:05;;;;;;;0.30;0.30;;;;;;;;;;10309883;28;20044;-77
2023/10/24 15:39:09;;;;;;;0.73;0.32;;;;;;;;;;10327673;28;20046;-77
2023/10/24 15:44:13;;;;;;;1.85;0.50;;;;;;;;;;10325359;28;20034;-77
2023/10/24 15:49:16;;;;;;;0.38;0.38;;;;;;;;;;10327374;28;20066;-78
2023/10/24 15:54:21;;;;;;;0.30;0.30;;;;;;;;;;10328556;28;20039;-77
2023/10/24 15:59:25;;;;;;;0.43;0.30;;;;;;;;;;10332316;28;20050;-77
2023/10/24 16:04:28;;;;;;;0.60;0.43;;;;;;;;;;10327742;28;20047;-77
2023/10/24 16:09:33;;;;;;;0.65;0.38;;;;;;;;;;10331954;28;20062;-78
2023/10/24 16:14:37;;;;;;;4.47;1.60;;;;;;;;;;10328465;28;20071;-77
2023/10/24 16:19:40;;;;;;;2.72;0.90;;;;;;;;;;10322808;28;20081;-77
2023/10/24 16:24:45;;;;;;;1.63;0.90;;;;;;;;;;10331617;28;20046;-78
2023/10/24 16:29:48;;;;;;;0.70;0.70;;;;;;;;;;10334263;28;20050;-78
2023/10/24 16:34:53;;;;;;;0.70;0.70;;;;;;;;;;10328673;28;20055;-78
2023/10/24 16:39:58;;;;;;;0.82;0.60;;;;;;;;;;10330036;28;20057;-78
2023/10/24 16:45:01;;;;;;;1.08;0.77;;;;;;;;;;10323640;28;20411;-78
2023/10/24 16:50:08;;;;;;;0.73;0.70;;;;;;;;;;10320911;28;20101;-75
2023/10/24 16:55:13;;;;;;;0.60;0.50;;;;;;;;;;10317020;28;20133;-77
2023/10/24 17:00:18;;;;;;;0.68;0.60;;;;;;;;;;10324121;28;20042;-77
2023/10/24 17:05:21;;;;;;;2.75;1.40;;;;;;;;;;10322274;28;20046;-78
2023/10/24 17:10:27;;;;;;;3.08;1.65;;;;;;;;;;10307022;28;20056;-78
2023/10/24 17:15:31;;;;;;;2.30;1.80;;;;;;;;;;10332216;28;20073;-75
2023/10/24 17:20:34;;;;;;;3.83;2.30;;;;;;;;;;10326114;28;20308;-75
2023/10/24 17:25:39;;;;;;;2.58;1.85;;;;;;;;;;10324005;28;20046;-75
2023/10/24 17:30:43;;;;;;;3.38;2.50;;;;;;;;;;10323050;28;20054;-75
2023/10/24 17:35:46;;;;;;;4.50;2.58;;;;;;;;;;10318742;28;20096;-75
2023/10/24 17:40:52;;;;;;;3.90;2.55;;;;;;;;;;10324160;28;20456;-75
2023/10/24 17:45:58;;;;;;;;;;;;;;;;;;10323804;28;20496;-77
2023/10/24 17:51:04;;;;;;;3.58;2.45;;;;;;;;;;10313505;28;19921;-77
2023/10/24 17:56:09;;;;;;;;;;;;;;;;;;10324472;28;20054;-77
2023/10/24 18:01:13;;;;;;;2.58;1.60;;;;;;;;;;10304257;28;19932;-77
2023/10/24 18:06:17;;;;;;;2.42;2.10;;;;;;;;;;10323086;28;20414;-77
2023/10/24 18:11:22;;;;;;;2.45;2.20;;;;;;;;;;10329619;28;20463;-77
2023/10/24 18:16:25;;;;;;;1.60;1.42;;;;;;;;;;10329307;28;20047;-77
2023/10/24 18:21:30;;;;;;;1.40;1.30;;;;;;;;;;10324328;28;20105;-77
2023/10/24 18:26:34;;;;;;;2.28;1.63;;;;;;;;;;10322957;28;20053;-77
2023/10/24 18:31:38;;;;;;;1.83;1.40;;;;;;;;;;10328016;28;20054;-77
2023/10/24 18:36:41;;;;;;;1.67;1.58;;;;;;;;;;10329183;28;20050;-77
2023/10/24 18:41:46;;;;;;;3.38;2.00;;;;;;;;;;10311051;28;20058;-77
2023/10/24 18:46:49;;;;;;;2.95;1.98;;;;;;;;;;10323786;28;20500;-77
2023/10/24 18:51:53;;;;;;;2.47;1.75;;;;;;;;;;10331587;28;20050;-77
2023/10/24 18:56:58;;;;;;;3.47;1.98;;;;;;;;;;10326825;28;20039;-77
2023/10/24 19:02:02;;;;;;;4.93;2.60;;;;;;;;;;10324811;28;20038;-77
2023/10/24 19:07:05;;;;;;;3.53;2.53;;;;;;;;;;10333103;28;20467;-77
2023/10/24 19:12:14;;;;;;;6.63;3.08;;;;;;;;;;10312394;28;20080;-77
2023/10/24 19:17:18;;;;;;;5.63;3.05;;;;;;;;;;10325960;28;20122;-77
2023/10/24 19:22:22;;;;;;;6.72;3.30;;;;;;;;;;10328862;28;20057;-77
2023/10/24 19:27:27;;;;;;;5.47;3.13;;;;;;;;;;10325621;28;20504;-77
2023/10/24 19:32:31;;;;;;;4.90;2.83;;;;;;;;;;10327438;28;20672;-77
2023/10/24 19:37:38;;;;;;;4.88;2.65;;;;;;;;;;10319153;28;20075;-77
2023/10/24 19:42:44;;;;;;;3.13;2.17;;;;;;;;;;10345848;23;20022;-75
2023/10/24 19:47:50;;;;;;;3.53;1.93;;;;;;;;;;10367654;28;20617;-76
2023/10/24 19:52:53;;;;;;;2.03;1.60;;;;;;;;;;10368632;28;20068;-77
2023/10/24 19:58:01;;;;;;;2.00;1.30;;;;;;;;;;10367051;28;20049;-77
2023/10/24 20:03:05;;;;;;;1.80;1.10;;;;;;;;;;10375749;28;20580;-77
2023/10/24 20:08:09;;;;;;;2.45;1.50;;;;;;;;;;10358090;28;20046;-78
2023/10/24 20:13:15;;;;;;;2.00;1.50;;;;;;;;;;10372478;28;20060;-78
2023/10/24 20:18:19;;;;;;;2.20;1.47;;;;;;;;;;10367362;28;20053;-78
2023/10/24 20:23:22;;;;;;;2.67;1.60;;;;;;;;;;10370329;28;20072;-78
2023/10/24 20:28:27;;;;;;;1.92;1.60;;;;;;;;;;10362329;28;20804;-78
2023/10/24 20:33:30;;;;;;;4.53;2.10;;;;;;;;;;10368407;28;20565;-78
2023/10/24 20:38:37;;;;;;;3.30;2.25;;;;;;;;;;10378644;28;20054;-78
2023/10/24 20:43:46;;;;;;;3.95;2.05;;;;;;;;;;10377947;28;20061;-77
2023/10/24 20:48:56;;;;;;;4.75;2.10;;;;;;;;;;10337793;28;20046;-77
2023/10/24 20:54:04;;;;;;;2.65;1.88;;;;;;;;;;10372837;28;20054;-78
2023/10/24 20:59:09;;;;;;;2.80;2.28;;;;;;;;;;10368520;28;20054;-77
2023/10/24 21:04:13;;;;;;;2.67;2.10;;;;;;;;;;10374370;28;20045;-78
2023/10/24 21:09:16;;;;;;;3.58;2.15;;;;;;;;;;10371409;28;20478;-78
2023/10/24 21:14:21;;;;;;;3.17;2.63;;;;;;;;;;10376848;28;20088;-78
2023/10/24 21:19:24;;;;;;;4.25;2.67;;;;;;;;;;10365412;28;20058;-77
2023/10/24 21:24:27;;;;;;;3.35;2.53;;;;;;;;;;10370480;28;20061;-78
2023/10/24 21:29:32;;;;;;;3.97;2.47;;;;;;;;;;10377707;28;20065;-78
2023/10/24 21:34:35;;;;;;;3.15;2.15;;;;;;;;;;10378133;28;20711;-77
2023/10/24 21:39:38;;;;;;;3.25;1.95;;;;;;;;;;10381502;28;20541;-78
2023/10/24 21:44:46;;;;;;;2.50;1.60;;;;;;;;;;10372124;28;20132;-78
2023/10/24 21:49:52;;;;;;;2.03;1.63;;;;;;;;;;10380664;28;20074;-78
2023/10/24 21:54:56;;;;;;;2.95;1.20;;;;;;;;;;10362915;28;20507;-78
2023/10/24 22:00:00;;;;;;;2.17;1.17;;;;;;;;;;10381246;28;20072;-78
2023/10/24 22:05:15;;;;;;;2.03;1.20;;;;;;;;;;10380804;28;20046;-78
2023/10/24 22:10:18;;;;;;;1.23;0.93;;;;;;;;;;10375958;28;20054;-78
2023/10/24 22:15:23;;;;;;;1.85;1.23;;;;;;;;;;10393243;28;20057;-78
2023/10/24 22:20:27;;;;;;;1.23;1.02;;;;;;;;;;10394433;28;20152;-78
2023/10/24 22:25:30;;;;;;;1.63;1.10;;;;;;;;;;10372511;28;20050;-78
2023/10/24 22:30:35;;;;;;;2.08;1.50;;;;;;;;;;10365479;28;20515;-77
2023/10/24 22:35:38;;;;;;;2.88;1.08;;;;;;;;;;10370728;28;20137;-78
2023/10/24 22:40:41;;;;;;;1.25;1.00;;;;;;;;;;10372188;28;20575;-78
2023/10/24 22:45:46;;;;;;;0.95;0.85;;;;;;;;;;10353606;28;20052;-78
2023/10/24 22:50:49;;;;;;;1.40;1.00;;;;;;;;;;10351169;28;20073;-78
2023/10/24 22:55:52;;;;;;;0.77;0.70;;;;;;;;;;10374655;28;20128;-77
2023/10/24 23:00:57;;;;;;;1.40;0.88;;;;;;;;;;10376407;28;20515;-78
2023/10/24 23:06:00;;;;;;;2.80;1.10;;;;;;;;;;10372440;28;20046;-78
2023/10/24 23:11:04;;;;;;;1.30;1.13;;;;;;;;;;10378549;28;20049;-78
2023/10/24 23:16:09;;;;;;;1.90;1.40;;;;;;;;;;10353670;28;20064;-78
2023/10/24 23:21:12;;;;;;;1.83;1.40;;;;;;;;;;10368582;28;20042;-78
2023/10/24 23:26:16;;;;;;;3.28;1.73;;;;;;;;;;10369899;28;20069;-78
2023/10/24 23:31:20;;;;;;;3.25;1.85;;;;;;;;;;10368482;28;20046;-78
2023/10/24 23:36:23;;;;;;;2.58;1.50;;;;;;;;;;10355798;28;20046;-78
2023/10/24 23:41:28;;;;;;;3.05;1.30;;;;;;;;;;10351629;28;20045;-77
2023/10/24 23:46:32;;;;;;;0.90;0.77;;;;;;;;;;10370189;28;20050;-78
2023/10/24 23:51:35;;;;;;;0.98;0.80;;;;;;;;;;10382228;28;20045;-78
2023/10/24 23:56:39;;;;;;;0.80;0.80;;;;;;;;;;10369072;28;20125;-78
